createdAt,value
2022-08-07T00:00:25.341Z,101625.00
2022-08-07T00:02:53.540Z,101633.00
2022-08-07T00:05:20.983Z,101636.00
2022-08-07T00:07:58.289Z,101629.00
2022-08-07T00:10:29.703Z,101632.00
2022-08-07T00:13:03.234Z,101630.00
2022-08-07T00:15:46.431Z,101640.00
2022-08-07T00:18:19.492Z,101625.00
2022-08-07T00:20:49.420Z,101634.00
2022-08-07T00:23:17.125Z,101636.00
2022-08-07T00:25:45.868Z,101638.00
2022-08-07T00:28:25.634Z,101640.00
2022-08-07T00:31:12.706Z,101633.00
2022-08-07T00:33:43.629Z,101631.00
2022-08-07T00:36:14.141Z,101628.00
2022-08-07T00:38:40.816Z,101630.00
2022-08-07T00:41:09.935Z,101634.00
2022-08-07T00:44:01.217Z,101621.00
2022-08-07T00:46:27.745Z,101630.00
2022-08-07T00:48:54.339Z,101628.00
2022-08-07T00:51:21.096Z,101623.00
2022-08-07T00:53:50.294Z,101626.00
2022-08-07T00:56:18.236Z,101626.00
2022-08-07T00:58:47.020Z,101622.00
2022-08-07T01:01:16.742Z,101626.00
2022-08-07T01:03:55.955Z,101621.00
2022-08-07T01:06:30.004Z,101630.00
2022-08-07T01:08:59.364Z,101633.00
2022-08-07T01:12:10.211Z,101635.00
2022-08-07T01:14:21.139Z,101633.00
2022-08-07T01:16:55.176Z,101635.00
2022-08-07T01:19:22.744Z,101631.00
2022-08-07T01:21:55.420Z,101631.00
2022-08-07T01:24:27.803Z,101625.00
2022-08-07T01:26:57.482Z,101629.00
2022-08-07T01:29:31.391Z,101624.00
2022-08-07T01:32:01.474Z,101620.00
2022-08-07T01:34:32.986Z,101617.00
2022-08-07T01:37:09.761Z,101626.00
2022-08-07T01:39:41.322Z,101619.00
2022-08-07T01:42:37.646Z,101619.00
2022-08-07T01:45:09.742Z,101617.00
2022-08-07T01:48:18.426Z,101617.00
2022-08-07T01:50:31.192Z,101609.00
2022-08-07T01:52:59.450Z,101623.00
2022-08-07T01:55:29.035Z,101622.00
2022-08-07T01:58:05.988Z,101605.00
2022-08-07T02:00:49.226Z,101622.00
2022-08-07T02:03:24.986Z,101616.00
2022-08-07T02:05:59.949Z,101616.00
2022-08-07T02:08:35.426Z,101618.00
2022-08-07T02:11:03.730Z,101624.00
2022-08-07T02:13:56.646Z,101622.00
2022-08-07T02:16:28.746Z,101617.00
2022-08-07T02:20:06.495Z,101614.00
2022-08-07T02:21:57.042Z,101619.00
2022-08-07T02:24:29.540Z,101612.00
2022-08-07T02:27:01.281Z,101622.00
2022-08-07T02:29:29.102Z,101620.00
2022-08-07T02:31:57.411Z,101623.00
2022-08-07T02:34:26.703Z,101628.00
2022-08-07T02:36:55.823Z,101629.00
2022-08-07T02:39:43.838Z,101622.00
2022-08-07T02:42:14.744Z,101623.00
2022-08-07T02:44:48.339Z,101617.00
2022-08-07T02:47:19.170Z,101616.00
2022-08-07T02:49:55.923Z,101618.00
2022-08-07T02:52:54.914Z,101616.00
2022-08-07T02:56:02.393Z,101619.00
2022-08-07T02:58:21.748Z,101614.00
2022-08-07T03:00:51.789Z,101615.00
2022-08-07T03:03:22.584Z,101620.00
2022-08-07T03:05:54.564Z,101614.00
2022-08-07T03:08:26.777Z,101615.00
2022-08-07T03:10:56.130Z,101621.00
2022-08-07T03:13:29.272Z,101623.00
2022-08-07T03:16:06.258Z,101623.00
2022-08-07T03:18:34.652Z,101616.00
2022-08-07T03:21:08.272Z,101620.00
2022-08-07T03:24:20.299Z,101620.00
2022-08-07T03:26:28.855Z,101622.00
2022-08-07T03:28:57.146Z,101627.00
2022-08-07T03:31:26.450Z,101633.00
2022-08-07T03:34:18.542Z,101626.00
2022-08-07T03:36:53.174Z,101627.00
2022-08-07T03:39:46.474Z,101623.00
2022-08-07T03:42:09.402Z,101621.00
2022-08-07T03:44:36.928Z,101629.00
2022-08-07T03:47:13.967Z,101634.00
2022-08-07T03:49:47.969Z,101636.00
2022-08-07T03:52:26.406Z,101621.00
2022-08-07T03:55:06.796Z,101633.00
2022-08-07T03:58:08.689Z,101634.00
2022-08-07T04:00:33.620Z,101634.00
2022-08-07T04:03:04.179Z,101629.00
2022-08-07T04:05:40.231Z,101628.00
2022-08-07T04:08:18.265Z,101624.00
2022-08-07T04:10:53.956Z,101630.00
2022-08-07T04:13:27.758Z,101627.00
2022-08-07T04:15:55.104Z,101641.00
2022-08-07T04:18:58.619Z,101629.00
2022-08-07T04:21:08.639Z,101624.00
2022-08-07T04:23:43.561Z,101635.00
2022-08-07T04:26:28.516Z,101633.00
2022-08-07T04:28:55.686Z,101626.00
2022-08-07T04:31:38.841Z,101638.00
2022-08-07T04:34:16.430Z,101637.00
2022-08-07T04:36:45.557Z,101638.00
2022-08-07T04:39:17.619Z,101642.00
2022-08-07T04:41:48.303Z,101640.00
2022-08-07T04:44:18.937Z,101643.00
2022-08-07T04:47:08.510Z,101641.00
2022-08-07T04:50:04.189Z,101643.00
2022-08-07T04:52:54.170Z,101651.00
2022-08-07T04:58:24.423Z,101652.00
2022-08-07T04:58:34.868Z,101650.00
2022-08-07T05:01:41.447Z,101654.00
2022-08-07T05:04:17.395Z,101659.00
2022-08-07T05:07:19.587Z,101656.00
2022-08-07T05:10:04.984Z,101655.00
2022-08-07T05:12:51.491Z,101657.00
2022-08-07T05:15:24.542Z,101657.00
2022-08-07T05:18:00.854Z,101653.00
2022-08-07T05:20:41.287Z,101654.00
2022-08-07T05:23:48.860Z,101650.00
2022-08-07T05:26:23.997Z,101656.00
2022-08-07T05:29:04.340Z,101651.00
2022-08-07T05:31:37.922Z,101649.00
2022-08-07T05:34:10.913Z,101650.00
2022-08-07T05:36:43.341Z,101655.00
2022-08-07T05:40:14.144Z,101655.00
2022-08-07T05:42:12.442Z,101656.00
2022-08-07T05:44:52.973Z,101660.00
2022-08-07T05:47:38.455Z,101665.00
2022-08-07T05:50:15.409Z,101654.00
2022-08-07T05:52:42.394Z,101663.00
2022-08-07T05:55:10.981Z,101656.00
2022-08-07T05:57:41.929Z,101655.00
2022-08-07T06:00:15.975Z,101671.00
2022-08-07T06:02:50.967Z,101668.00
2022-08-07T06:05:19.654Z,101662.00
2022-08-07T06:08:14.073Z,101662.00
2022-08-07T06:10:41.184Z,101662.00
2022-08-07T06:13:13.353Z,101670.00
2022-08-07T06:15:43.003Z,101668.00
2022-08-07T06:18:16.219Z,101665.00
2022-08-07T06:20:51.061Z,101672.00
2022-08-07T06:24:37.748Z,101676.00
2022-08-07T06:26:27.230Z,101669.00
2022-08-07T06:29:01.252Z,101666.00
2022-08-07T06:31:47.238Z,101672.00
2022-08-07T06:34:20.435Z,101667.00
2022-08-07T06:36:52.284Z,101670.00
2022-08-07T06:40:17.236Z,101674.00
2022-08-07T06:42:17.616Z,101672.00
2022-08-07T06:45:07.229Z,101672.00
2022-08-07T06:47:48.270Z,101678.00
2022-08-07T06:50:30.425Z,101671.00
2022-08-07T06:52:59.549Z,101676.00
2022-08-07T06:56:00.154Z,101666.00
2022-08-07T06:58:21.465Z,101668.00
2022-08-07T07:00:59.473Z,101682.00
2022-08-07T07:03:47.578Z,101683.00
2022-08-07T07:06:14.215Z,101673.00
2022-08-07T07:08:50.596Z,101680.00
2022-08-07T07:12:06.933Z,101674.00
2022-08-07T07:14:04.848Z,101669.00
2022-08-07T07:16:49.459Z,101671.00
2022-08-07T07:19:56.131Z,101665.00
2022-08-07T07:22:33.722Z,101673.00
2022-08-07T07:25:14.024Z,101667.00
2022-08-07T07:28:07.803Z,101665.00
2022-08-07T07:30:59.803Z,101669.00
2022-08-07T07:33:28.673Z,101670.00
2022-08-07T07:36:04.866Z,101659.00
2022-08-07T07:38:33.160Z,101666.00
2022-08-07T07:41:04.716Z,101665.00
2022-08-07T07:44:14.901Z,101658.00
2022-08-07T07:46:38.102Z,101659.00
2022-08-07T07:50:33.819Z,101658.00
2022-08-07T07:52:03.453Z,101657.00
2022-08-07T07:54:31.926Z,101648.00
2022-08-07T07:57:01.541Z,101654.00
2022-08-07T07:59:52.433Z,101652.00
2022-08-07T08:02:34.260Z,101649.00
2022-08-07T08:05:14.287Z,101648.00
2022-08-07T08:07:59.612Z,101643.00
2022-08-07T08:10:37.819Z,101641.00
2022-08-07T08:13:14.926Z,101639.00
2022-08-07T08:15:57.973Z,101635.00
2022-08-07T08:18:28.349Z,101637.00
2022-08-07T08:20:55.296Z,101637.00
2022-08-07T08:23:42.722Z,101632.00
2022-08-07T08:26:28.578Z,101639.00
2022-08-07T08:28:56.101Z,101638.00
2022-08-07T08:31:59.011Z,101643.00
2022-08-07T08:34:31.999Z,101626.00
2022-08-07T08:36:59.039Z,101630.00
2022-08-07T08:39:39.709Z,101633.00
2022-08-07T08:42:51.784Z,101633.00
2022-08-07T08:45:26.700Z,101630.00
2022-08-07T08:48:08.463Z,101631.00
2022-08-07T08:51:03.423Z,101632.00
2022-08-07T08:53:52.318Z,101621.00
2022-08-07T08:56:27.185Z,101626.00
2022-08-07T08:59:12.686Z,101620.00
2022-08-07T09:01:59.996Z,101622.00
2022-08-07T09:04:49.149Z,101612.00
2022-08-07T09:07:22.958Z,101617.00
2022-08-07T09:09:56.735Z,101614.00
2022-08-07T09:12:34.386Z,101615.00
2022-08-07T09:16:23.533Z,101608.00
2022-08-07T09:18:36.762Z,101620.00
2022-08-07T09:21:03.414Z,101618.00
2022-08-07T09:24:32.765Z,101615.00
2022-08-07T09:26:30.786Z,101619.00
2022-08-07T09:30:01.463Z,101609.00
2022-08-07T09:32:17.315Z,101600.00
2022-08-07T09:36:02.927Z,101598.00
2022-08-07T09:38:13.946Z,101601.00
2022-08-07T09:40:53.351Z,101600.00
2022-08-07T09:44:03.203Z,101599.00
2022-08-07T09:47:52.064Z,101595.00
2022-08-07T09:50:02.860Z,101598.00
2022-08-07T09:52:34.398Z,101591.00
2022-08-07T09:55:06.924Z,101595.00
2022-08-07T09:58:12.162Z,101588.00
2022-08-07T10:00:53.816Z,101586.00
2022-08-07T10:04:04.898Z,101587.00
2022-08-07T10:06:55.636Z,101575.00
2022-08-07T10:09:42.596Z,101578.00
2022-08-07T10:12:39.708Z,101569.00
2022-08-07T10:15:25.349Z,101574.00
2022-08-07T10:18:07.818Z,101566.00
2022-08-07T10:20:54.563Z,101562.00
2022-08-07T10:24:05.880Z,101564.00
2022-08-07T10:26:40.859Z,101555.00
2022-08-07T10:29:45.711Z,101552.00
2022-08-07T10:32:51.321Z,101548.00
2022-08-07T10:35:55.183Z,101543.00
2022-08-07T10:38:41.967Z,101536.00
2022-08-07T10:41:51.986Z,101532.00
2022-08-07T10:44:50.191Z,101535.00
2022-08-07T10:47:53.664Z,101524.00
2022-08-07T10:50:29.889Z,101529.00
2022-08-07T10:53:44.496Z,101523.00
2022-08-07T10:56:32.830Z,101526.00
2022-08-07T10:59:37.101Z,101514.00
2022-08-07T11:02:32.899Z,101521.00
2022-08-07T11:05:44.863Z,101516.00
2022-08-07T11:08:39.008Z,101515.00
2022-08-07T11:11:29.553Z,101510.00
2022-08-07T11:14:43.662Z,101516.00
2022-08-07T11:17:09.740Z,101511.00
2022-08-07T11:19:38.353Z,101507.00
2022-08-07T11:22:32.502Z,101504.00
2022-08-07T11:25:23.653Z,101510.00
2022-08-07T11:28:15.388Z,101510.00
2022-08-07T11:30:58.275Z,101498.00
2022-08-07T11:33:54.027Z,101489.00
2022-08-07T11:36:50.237Z,101495.00
2022-08-07T11:40:00.061Z,101492.00
2022-08-07T11:42:47.046Z,101495.00
2022-08-07T11:45:35.615Z,101489.00
2022-08-07T11:48:18.008Z,101482.00
2022-08-07T11:51:41.607Z,101484.00
2022-08-07T11:54:39.151Z,101477.00
2022-08-07T11:57:16.890Z,101481.00
2022-08-07T12:00:10.736Z,101483.00
2022-08-07T12:03:41.820Z,101483.00
2022-08-07T12:06:38.900Z,101483.00
2022-08-07T12:09:31.719Z,101472.00
2022-08-07T12:12:12.201Z,101477.00
2022-08-07T12:14:51.459Z,101474.00
2022-08-07T12:17:24.773Z,101466.00
2022-08-07T12:20:04.737Z,101467.00
2022-08-07T12:22:58.578Z,101456.00
2022-08-07T12:26:22.835Z,101453.00
2022-08-07T12:28:53.027Z,101463.00
2022-08-07T12:31:52.532Z,101457.00
2022-08-07T12:34:26.012Z,101444.00
2022-08-07T12:36:54.641Z,101445.00
2022-08-07T12:39:43.195Z,101450.00
2022-08-07T12:42:13.142Z,101441.00
2022-08-07T12:44:42.928Z,101444.00
2022-08-07T12:47:27.084Z,101441.00
2022-08-07T12:50:39.952Z,101435.00
2022-08-07T12:53:22.394Z,101436.00
2022-08-07T12:56:03.575Z,101436.00
2022-08-07T12:58:39.296Z,101423.00
2022-08-07T13:01:08.845Z,101429.00
2022-08-07T13:04:02.990Z,101427.00
2022-08-07T13:07:01.169Z,101428.00
2022-08-07T13:10:28.515Z,101412.00
2022-08-07T13:13:02.085Z,101408.00
2022-08-07T13:15:39.552Z,101409.00
2022-08-07T13:18:28.259Z,101409.00
2022-08-07T13:21:13.899Z,101406.00
2022-08-07T13:24:06.013Z,101409.00
2022-08-07T13:26:46.831Z,101401.00
2022-08-07T13:29:28.081Z,101396.00
2022-08-07T13:32:35.195Z,101393.00
2022-08-07T13:35:23.917Z,101389.00
2022-08-07T13:38:38.034Z,101388.00
2022-08-07T13:41:24.191Z,101380.00
2022-08-07T13:43:57.381Z,101383.00
2022-08-07T13:46:32.809Z,101372.00
2022-08-07T13:49:01.559Z,101373.00
2022-08-07T13:52:05.000Z,101372.00
2022-08-07T13:54:22.686Z,101363.00
2022-08-07T13:56:56.027Z,101375.00
2022-08-07T13:59:32.610Z,101371.00
2022-08-07T14:02:08.243Z,101366.00
2022-08-07T14:04:47.467Z,101366.00
2022-08-07T14:07:20.934Z,101361.00
2022-08-07T14:10:02.605Z,101365.00
2022-08-07T14:12:56.343Z,101352.00
2022-08-07T14:15:42.421Z,101359.00
2022-08-07T14:18:28.852Z,101355.00
2022-08-07T14:21:08.343Z,101352.00
2022-08-07T14:24:00.303Z,101344.00
2022-08-07T14:26:51.518Z,101348.00
2022-08-07T14:32:20.127Z,101340.00
2022-08-07T14:34:52.491Z,101328.00
2022-08-07T14:37:36.018Z,101328.00
2022-08-07T14:40:15.700Z,101326.00
2022-08-07T14:43:01.252Z,101336.00
2022-08-07T14:45:46.606Z,101339.00
2022-08-07T14:51:15.719Z,101329.00
2022-08-07T14:54:08.640Z,101324.00
2022-08-07T14:56:32.057Z,101325.00
2022-08-07T14:59:13.830Z,101317.00
2022-08-07T15:01:58.459Z,101320.00
2022-08-07T15:04:25.898Z,101311.00
2022-08-07T15:06:56.236Z,101315.00
2022-08-07T15:09:57.781Z,101320.00
2022-08-07T15:12:26.173Z,101320.00
2022-08-07T15:15:09.125Z,101312.00
2022-08-07T15:17:58.938Z,101311.00
2022-08-07T15:20:35.821Z,101307.00
2022-08-07T15:32:00.705Z,101294.00
2022-08-07T15:35:04.070Z,101297.00
2022-08-07T15:38:18.337Z,101292.00
2022-08-07T15:43:53.390Z,101285.00
2022-08-07T15:46:04.518Z,101289.00
2022-08-07T15:49:11.894Z,101282.00
2022-08-07T15:54:23.038Z,101278.00
2022-08-07T15:56:50.608Z,101276.00
2022-08-07T15:59:20.277Z,101284.00
2022-08-07T16:02:08.512Z,101276.00
2022-08-07T16:04:36.114Z,101284.00
2022-08-07T16:08:32.438Z,101277.00
2022-08-07T16:09:59.192Z,101275.00
2022-08-07T16:12:40.874Z,101267.00
2022-08-07T16:15:56.418Z,101271.00
2022-08-07T16:18:50.380Z,101263.00
2022-08-07T16:22:02.652Z,101264.00
2022-08-07T16:24:35.639Z,101270.00
2022-08-07T16:27:23.612Z,101271.00
2022-08-07T16:30:30.659Z,101269.00
2022-08-07T16:34:03.294Z,101265.00
2022-08-07T16:36:19.760Z,101263.00
2022-08-07T16:39:02.358Z,101261.00
2022-08-07T16:41:41.238Z,101258.00
2022-08-07T16:45:04.138Z,101263.00
2022-08-07T16:47:53.095Z,101261.00
2022-08-07T16:50:39.207Z,101253.00
2022-08-07T16:54:06.132Z,101257.00
2022-08-07T16:56:54.482Z,101265.00
2022-08-07T16:59:46.003Z,101262.00
2022-08-07T17:03:04.831Z,101263.00
2022-08-07T17:06:29.000Z,101263.00
2022-08-07T17:09:09.663Z,101256.00
2022-08-07T17:12:01.939Z,101260.00
2022-08-07T17:14:46.539Z,101256.00
2022-08-07T17:17:46.120Z,101257.00
2022-08-07T17:20:31.410Z,101261.00
2022-08-07T17:23:20.791Z,101267.00
2022-08-07T17:26:22.688Z,101263.00
2022-08-07T17:29:06.155Z,101269.00
2022-08-07T17:31:44.328Z,101265.00
2022-08-07T17:34:43.562Z,101267.00
2022-08-07T17:38:09.460Z,101267.00
2022-08-07T17:40:36.663Z,101274.00
2022-08-07T17:43:14.935Z,101272.00
2022-08-07T17:45:55.499Z,101259.00
2022-08-07T17:48:33.414Z,101263.00
2022-08-07T17:51:06.986Z,101264.00
2022-08-07T17:54:02.075Z,101269.00
2022-08-07T17:56:49.708Z,101258.00
2022-08-07T17:59:35.431Z,101274.00
2022-08-07T18:02:29.358Z,101266.00
2022-08-07T18:05:21.733Z,101262.00
2022-08-07T18:08:24.176Z,101265.00
2022-08-07T18:12:06.915Z,101270.00
2022-08-07T18:13:54.685Z,101261.00
2022-08-07T18:16:36.896Z,101263.00
2022-08-07T18:21:09.923Z,101266.00
2022-08-07T18:22:49.269Z,101261.00
2022-08-07T18:25:40.318Z,101259.00
2022-08-07T18:28:35.424Z,101273.00
2022-08-07T18:31:18.351Z,101267.00
2022-08-07T18:34:39.282Z,101272.00
2022-08-07T18:38:56.754Z,101268.00
2022-08-07T18:40:42.748Z,101276.00
2022-08-07T18:43:17.852Z,101278.00
2022-08-07T18:46:22.005Z,101284.00
2022-08-07T18:50:30.243Z,101281.00
2022-08-07T18:52:51.696Z,101290.00
2022-08-07T18:55:41.110Z,101288.00
2022-08-07T18:58:14.402Z,101293.00
2022-08-07T19:01:01.781Z,101292.00
2022-08-07T19:03:52.626Z,101295.00
2022-08-07T19:07:10.042Z,101303.00
2022-08-07T19:09:57.740Z,101306.00
2022-08-07T19:12:58.128Z,101292.00
2022-08-07T19:16:04.612Z,101306.00
2022-08-07T19:18:48.388Z,101302.00
2022-08-07T19:21:48.046Z,101302.00
2022-08-07T19:24:43.460Z,101305.00
2022-08-07T19:28:57.313Z,101292.00
2022-08-07T19:31:00.765Z,101306.00
2022-08-07T19:32:59.582Z,101309.00
2022-08-07T19:35:33.360Z,101305.00
2022-08-07T19:38:04.304Z,101312.00
2022-08-07T19:40:50.027Z,101307.00
2022-08-07T19:43:43.549Z,101316.00
2022-08-07T19:46:26.698Z,101319.00
2022-08-07T19:49:08.782Z,101325.00
2022-08-07T19:51:51.376Z,101320.00
2022-08-07T19:54:32.103Z,101321.00
2022-08-07T19:58:04.126Z,101317.00
2022-08-07T20:00:10.341Z,101306.00
2022-08-07T20:03:01.027Z,101331.00
2022-08-07T20:06:00.986Z,101328.00
2022-08-07T20:08:29.239Z,101333.00
2022-08-07T20:11:03.906Z,101325.00
2022-08-07T20:13:47.766Z,101322.00
2022-08-07T20:16:36.849Z,101327.00
2022-08-07T20:19:10.415Z,101329.00
2022-08-07T20:21:42.119Z,101336.00
2022-08-07T20:24:32.609Z,101325.00
2022-08-07T20:27:03.279Z,101325.00
2022-08-07T20:29:48.965Z,101338.00
2022-08-07T20:32:40.434Z,101332.00
2022-08-07T20:35:11.095Z,101341.00
2022-08-07T20:37:55.543Z,101331.00
2022-08-07T20:40:34.635Z,101336.00
2022-08-07T20:43:02.713Z,101339.00
2022-08-07T20:46:25.606Z,101336.00
2022-08-07T20:48:30.931Z,101334.00
2022-08-07T20:51:09.505Z,101341.00
2022-08-07T20:54:03.570Z,101343.00
2022-08-07T20:56:28.877Z,101340.00
2022-08-07T20:58:58.853Z,101342.00
2022-08-07T21:01:36.569Z,101338.00
2022-08-07T21:04:22.429Z,101334.00
2022-08-07T21:06:53.657Z,101345.00
2022-08-07T21:09:24.217Z,101345.00
2022-08-07T21:11:55.677Z,101364.00
2022-08-07T21:14:33.643Z,101350.00
2022-08-07T21:18:04.020Z,101356.00
2022-08-07T21:20:04.766Z,101348.00
2022-08-07T21:22:34.592Z,101346.00
2022-08-07T21:25:13.231Z,101347.00
2022-08-07T21:28:02.070Z,101348.00
2022-08-07T21:30:38.710Z,101343.00
2022-08-07T21:33:20.489Z,101346.00
2022-08-07T21:36:06.640Z,101357.00
2022-08-07T21:38:44.726Z,101350.00
2022-08-07T21:41:38.160Z,101346.00
2022-08-07T21:44:28.371Z,101346.00
2022-08-07T21:47:19.757Z,101349.00
2022-08-07T21:50:02.507Z,101352.00
2022-08-07T21:52:42.223Z,101350.00
2022-08-07T21:55:19.515Z,101340.00
2022-08-07T21:58:32.151Z,101349.00
2022-08-07T22:01:13.783Z,101349.00
2022-08-07T22:03:52.246Z,101357.00
2022-08-07T22:06:31.505Z,101349.00
2022-08-07T22:09:06.884Z,101351.00
2022-08-07T22:12:04.800Z,101356.00
2022-08-07T22:14:34.563Z,101344.00
2022-08-07T22:17:04.224Z,101355.00
2022-08-07T22:19:31.794Z,101349.00
2022-08-07T22:22:17.723Z,101352.00
2022-08-07T22:25:03.102Z,101352.00
2022-08-07T22:28:08.371Z,101351.00
2022-08-07T22:30:28.662Z,101348.00
2022-08-07T22:33:09.284Z,101357.00
2022-08-07T22:35:48.098Z,101356.00
2022-08-07T22:38:47.989Z,101359.00
2022-08-07T22:41:21.352Z,101346.00
2022-08-07T22:44:03.485Z,101349.00
2022-08-07T22:47:04.412Z,101348.00
2022-08-07T22:49:51.679Z,101347.00
2022-08-07T22:52:36.902Z,101349.00
2022-08-07T22:55:30.208Z,101346.00
2022-08-07T22:58:08.769Z,101350.00
2022-08-07T23:00:46.172Z,101360.00
2022-08-07T23:03:58.883Z,101355.00
2022-08-07T23:06:34.991Z,101359.00
2022-08-07T23:10:04.411Z,101356.00
2022-08-07T23:12:34.411Z,101358.00
2022-08-07T23:16:05.363Z,101355.00
2022-08-07T23:18:42.427Z,101352.00
2022-08-07T23:21:30.221Z,101355.00
2022-08-07T23:24:24.821Z,101364.00
2022-08-07T23:27:13.378Z,101364.00
2022-08-07T23:30:38.282Z,101364.00
2022-08-07T23:34:34.749Z,101368.00
2022-08-07T23:36:29.774Z,101370.00
2022-08-07T23:39:04.859Z,101358.00
2022-08-07T23:42:04.236Z,101359.00
2022-08-07T23:44:47.188Z,101358.00
2022-08-07T23:47:42.281Z,101361.00
2022-08-07T23:50:36.830Z,101356.00
2022-08-07T23:53:51.012Z,101351.00
2022-08-07T23:56:20.914Z,101360.00
2022-08-07T23:59:10.460Z,101367.00
